createdAt,value
2022-11-09T00:02:49.188Z,86.51
2022-11-09T00:05:54.380Z,85.92
2022-11-09T00:09:05.781Z,85.36
2022-11-09T00:12:10.241Z,85.38
2022-11-09T00:15:16.201Z,85.22
2022-11-09T00:18:21.925Z,85.14
2022-11-09T00:21:38.327Z,85.26
2022-11-09T00:24:43.716Z,85.95
2022-11-09T00:27:49.988Z,85.78
2022-11-09T00:30:57.292Z,85.48
2022-11-09T00:34:04.700Z,86.43
2022-11-09T00:37:12.995Z,85.46
2022-11-09T00:40:18.714Z,86.10
2022-11-09T00:43:23.767Z,87.10
2022-11-09T00:46:29.940Z,87.02
2022-11-09T00:49:37.041Z,87.55
2022-11-09T00:52:42.825Z,88.26
2022-11-09T00:55:48.187Z,87.26
2022-11-09T00:58:53.953Z,86.93
2022-11-09T01:02:00.119Z,87.81
2022-11-09T01:05:06.931Z,87.69
2022-11-09T01:08:13.154Z,87.51
2022-11-09T01:11:23.466Z,87.54
2022-11-09T01:14:29.203Z,87.60
2022-11-09T01:17:34.116Z,88.22
2022-11-09T01:20:40.162Z,88.55
2022-11-09T01:23:46.179Z,88.15
2022-11-09T01:26:52.635Z,87.60
2022-11-09T01:29:57.877Z,87.47
2022-11-09T01:33:03.896Z,88.17
2022-11-09T01:36:11.369Z,88.19
2022-11-09T01:39:17.181Z,87.94
2022-11-09T01:42:23.574Z,87.87
2022-11-09T01:45:43.530Z,87.68
2022-11-09T01:48:56.560Z,87.48
2022-11-09T01:52:13.128Z,87.39
2022-11-09T01:55:23.480Z,87.02
2022-11-09T01:58:33.043Z,86.93
2022-11-09T02:01:37.521Z,87.23
2022-11-09T02:04:49.846Z,86.69
2022-11-09T02:07:57.196Z,87.00
2022-11-09T02:11:25.973Z,86.73
2022-11-09T02:14:31.059Z,86.48
2022-11-09T02:17:38.738Z,86.46
2022-11-09T02:20:44.099Z,87.39
2022-11-09T02:23:49.685Z,88.36
2022-11-09T02:27:07.472Z,87.91
2022-11-09T02:30:13.575Z,87.57
2022-11-09T02:33:19.052Z,87.10
2022-11-09T02:36:24.440Z,87.48
2022-11-09T02:39:35.107Z,87.09
2022-11-09T02:42:41.829Z,86.11
2022-11-09T02:45:47.311Z,86.70
2022-11-09T02:48:52.198Z,86.58
2022-11-09T02:51:57.842Z,87.26
2022-11-09T02:55:03.892Z,87.25
2022-11-09T02:58:10.737Z,86.44
2022-11-09T03:01:16.319Z,86.17
2022-11-09T03:04:22.117Z,87.17
2022-11-09T03:07:26.870Z,86.89
2022-11-09T03:10:31.984Z,87.11
2022-11-09T03:13:36.930Z,86.80
2022-11-09T03:16:46.513Z,87.20
2022-11-09T03:19:49.503Z,87.80
2022-11-09T03:22:56.766Z,87.46
2022-11-09T03:26:04.545Z,87.33
2022-11-09T03:29:11.122Z,87.10
2022-11-09T03:32:17.152Z,87.21
2022-11-09T03:35:17.921Z,87.44
2022-11-09T03:38:24.079Z,86.33
2022-11-09T03:41:31.249Z,86.52
2022-11-09T03:44:36.684Z,86.44
2022-11-09T03:47:43.317Z,87.53
2022-11-09T03:50:49.620Z,87.78
2022-11-09T03:53:55.778Z,87.81
2022-11-09T03:57:01.809Z,87.67
2022-11-09T04:00:07.719Z,87.58
2022-11-09T04:03:14.346Z,87.56
2022-11-09T04:06:20.807Z,86.49
2022-11-09T04:09:26.296Z,85.63
2022-11-09T04:12:32.080Z,85.95
2022-11-09T04:15:38.743Z,86.82
2022-11-09T04:18:45.431Z,86.64
2022-11-09T04:21:51.066Z,87.03
2022-11-09T04:24:57.559Z,86.93
2022-11-09T04:28:04.025Z,87.34
2022-11-09T04:31:12.377Z,87.25
2022-11-09T04:34:17.697Z,87.12
2022-11-09T04:37:24.859Z,87.46
2022-11-09T04:40:31.398Z,87.84
2022-11-09T04:43:36.849Z,87.83
2022-11-09T04:46:43.655Z,87.84
2022-11-09T04:49:49.181Z,88.03
2022-11-09T04:52:54.835Z,88.42
2022-11-09T04:56:01.162Z,89.21
2022-11-09T04:59:08.792Z,89.35
2022-11-09T05:02:14.610Z,89.79
2022-11-09T05:05:22.106Z,89.77
2022-11-09T05:08:27.491Z,89.88
2022-11-09T05:11:34.296Z,89.26
2022-11-09T05:14:41.098Z,88.65
2022-11-09T05:17:46.865Z,87.64
2022-11-09T05:20:53.872Z,87.41
2022-11-09T05:24:09.561Z,86.87
2022-11-09T05:27:15.468Z,86.70
2022-11-09T05:30:21.984Z,86.51
2022-11-09T05:33:27.875Z,85.96
2022-11-09T05:36:33.812Z,85.81
2022-11-09T05:39:39.114Z,85.38
2022-11-09T05:42:44.949Z,84.60
2022-11-09T05:45:44.646Z,85.62
2022-11-09T05:48:37.897Z,84.34
2022-11-09T05:51:44.343Z,84.31
2022-11-09T05:54:49.980Z,84.41
2022-11-09T05:57:54.993Z,84.29
2022-11-09T06:01:00.138Z,84.53
2022-11-09T06:04:06.651Z,85.55
2022-11-09T06:07:12.557Z,86.41
2022-11-09T06:10:17.937Z,87.06
2022-11-09T06:13:23.550Z,86.93
2022-11-09T06:16:30.174Z,87.07
2022-11-09T06:19:35.821Z,87.07
2022-11-09T06:22:43.008Z,87.40
2022-11-09T06:25:49.663Z,86.99
2022-11-09T06:28:55.315Z,85.92
2022-11-09T06:32:01.378Z,86.44
2022-11-09T06:35:07.305Z,84.94
2022-11-09T06:38:14.863Z,84.92
2022-11-09T06:41:19.694Z,84.97
2022-11-09T06:44:25.267Z,85.55
2022-11-09T06:47:25.226Z,85.72
2022-11-09T06:50:31.188Z,85.34
2022-11-09T06:53:38.333Z,85.38
2022-11-09T06:56:45.008Z,84.99
2022-11-09T06:59:50.187Z,84.73
2022-11-09T07:02:57.653Z,84.66
2022-11-09T07:06:05.716Z,84.00
2022-11-09T07:09:12.326Z,84.09
2022-11-09T07:12:20.474Z,83.67
2022-11-09T07:15:28.122Z,83.68
2022-11-09T07:18:36.424Z,83.21
2022-11-09T07:21:43.273Z,83.26
2022-11-09T07:24:50.159Z,83.61
2022-11-09T07:27:57.582Z,84.30
2022-11-09T07:31:02.577Z,84.32
2022-11-09T07:34:11.926Z,84.00
2022-11-09T07:37:17.890Z,83.74
2022-11-09T07:40:24.518Z,83.25
2022-11-09T07:43:30.227Z,82.75
2022-11-09T07:46:36.432Z,82.99
2022-11-09T07:49:43.016Z,82.91
2022-11-09T07:52:48.898Z,82.17
2022-11-09T07:56:40.293Z,81.57
2022-11-09T07:59:49.076Z,82.24
2022-11-09T08:02:54.551Z,82.90
2022-11-09T08:06:02.411Z,83.70
2022-11-09T08:09:09.776Z,83.97
2022-11-09T08:12:15.423Z,84.04
2022-11-09T08:15:22.445Z,84.32
2022-11-09T08:18:32.051Z,84.02
2022-11-09T08:21:37.964Z,83.36
2022-11-09T08:24:45.423Z,82.68
2022-11-09T08:27:51.384Z,82.37
2022-11-09T08:30:59.985Z,82.20
2022-11-09T08:34:07.453Z,81.69
2022-11-09T08:37:14.367Z,81.72
2022-11-09T08:40:21.196Z,81.80
2022-11-09T08:43:27.514Z,82.03
2022-11-09T08:46:38.374Z,81.91
2022-11-09T08:49:42.000Z,81.36
2022-11-09T08:52:48.278Z,81.51
2022-11-09T08:55:53.894Z,81.41
2022-11-09T08:58:58.769Z,81.43
2022-11-09T09:02:04.304Z,81.14
2022-11-09T09:05:09.267Z,80.77
2022-11-09T09:08:18.299Z,80.08
2022-11-09T09:11:24.072Z,79.72
2022-11-09T09:14:30.406Z,80.29
2022-11-09T09:17:37.297Z,80.15
2022-11-09T09:20:42.932Z,79.84
2022-11-09T09:23:49.560Z,79.53
2022-11-09T09:26:56.018Z,78.78
2022-11-09T09:30:03.864Z,77.76
2022-11-09T09:33:14.530Z,77.17
2022-11-09T09:36:21.612Z,76.68
2022-11-09T09:39:27.312Z,75.54
2022-11-09T09:42:46.007Z,75.31
2022-11-09T09:45:51.776Z,74.90
2022-11-09T09:49:03.881Z,75.55
2022-11-09T09:52:22.247Z,76.29
2022-11-09T09:55:42.586Z,75.62
2022-11-09T09:58:49.522Z,74.95
2022-11-09T10:01:58.382Z,74.39
2022-11-09T10:05:03.256Z,74.05
2022-11-09T10:08:27.050Z,74.11
2022-11-09T10:12:17.241Z,73.24
2022-11-09T10:15:52.711Z,72.92
2022-11-09T10:19:35.941Z,72.74
2022-11-09T10:22:52.928Z,72.40
2022-11-09T10:26:04.483Z,73.11
2022-11-09T10:29:16.068Z,72.92
2022-11-09T10:32:07.229Z,72.92
2022-11-09T10:35:23.480Z,72.78
2022-11-09T10:38:36.556Z,72.41
2022-11-09T10:41:59.394Z,72.08
2022-11-09T10:45:46.274Z,71.46
2022-11-09T10:49:11.040Z,71.82
2022-11-09T10:52:48.472Z,72.19
2022-11-09T10:56:37.237Z,71.96
2022-11-09T11:00:05.392Z,72.12
2022-11-09T11:03:32.404Z,71.30
2022-11-09T11:06:56.272Z,70.92
2022-11-09T11:10:36.061Z,70.41
2022-11-09T11:14:01.239Z,70.25
2022-11-09T11:17:42.313Z,70.93
2022-11-09T11:21:28.039Z,70.13
2022-11-09T11:24:52.693Z,69.62
2022-11-09T11:28:06.110Z,69.58
2022-11-09T11:31:27.303Z,69.33
2022-11-09T11:34:59.772Z,69.59
2022-11-09T11:38:42.978Z,69.73
2022-11-09T11:42:16.438Z,69.46
2022-11-09T11:45:59.331Z,69.47
2022-11-09T11:49:46.934Z,69.46
2022-11-09T11:53:26.148Z,69.31
2022-11-09T11:57:04.762Z,68.94
2022-11-09T12:00:29.272Z,69.89
2022-11-09T12:04:06.158Z,69.92
2022-11-09T12:07:57.216Z,70.07
2022-11-09T12:11:23.524Z,69.28
2022-11-09T12:15:06.518Z,69.83
2022-11-09T12:18:46.640Z,69.63
2022-11-09T12:22:26.955Z,69.61
2022-11-09T12:25:57.877Z,69.70
2022-11-09T12:29:37.904Z,70.09
2022-11-09T12:33:11.820Z,69.61
2022-11-09T12:36:47.762Z,69.79
2022-11-09T12:40:13.003Z,69.89
2022-11-09T12:43:43.159Z,70.51
2022-11-09T12:47:12.735Z,71.12
2022-11-09T12:50:36.876Z,71.73
2022-11-09T12:53:59.563Z,72.32
2022-11-09T12:57:31.044Z,72.35
2022-11-09T13:00:59.182Z,71.99
2022-11-09T13:04:08.494Z,72.35
2022-11-09T13:07:32.846Z,72.35
2022-11-09T13:10:56.073Z,71.88
2022-11-09T13:14:43.474Z,71.26
2022-11-09T13:18:16.376Z,71.23
2022-11-09T13:21:43.904Z,71.76
2022-11-09T13:25:08.193Z,71.90
2022-11-09T13:28:19.999Z,72.00
2022-11-09T13:32:28.540Z,72.13
2022-11-09T13:36:03.003Z,72.71
2022-11-09T13:39:46.965Z,73.05
2022-11-09T13:43:26.800Z,72.81
2022-11-09T13:46:53.427Z,73.23
2022-11-09T13:50:16.182Z,72.67
2022-11-09T13:54:18.107Z,72.96
2022-11-09T13:57:40.856Z,73.20
2022-11-09T14:01:03.849Z,73.14
2022-11-09T14:04:49.626Z,73.18
2022-11-09T14:08:14.927Z,73.02
2022-11-09T14:12:03.921Z,73.03
2022-11-09T14:15:59.858Z,73.39
2022-11-09T14:19:27.557Z,73.80
2022-11-09T14:22:51.027Z,73.72
2022-11-09T14:26:23.209Z,73.90
2022-11-09T14:29:42.792Z,73.63
2022-11-09T14:33:08.087Z,73.49
2022-11-09T14:36:32.422Z,73.60
2022-11-09T14:39:56.817Z,73.93
2022-11-09T14:43:44.429Z,74.07
2022-11-09T14:47:11.008Z,76.06
2022-11-09T14:50:40.588Z,76.33
2022-11-09T14:54:05.445Z,75.94
2022-11-09T14:57:29.975Z,75.48
2022-11-09T15:00:47.270Z,75.42
2022-11-09T15:04:31.020Z,75.59
2022-11-09T15:07:55.027Z,75.82
2022-11-09T15:11:18.495Z,76.22
2022-11-09T15:14:47.914Z,76.30
2022-11-09T15:18:10.932Z,76.39
2022-11-09T15:21:42.369Z,77.03
2022-11-09T15:25:06.960Z,76.68
2022-11-09T15:28:38.682Z,76.77
2022-11-09T15:32:26.243Z,76.82
2022-11-09T15:35:50.080Z,76.65
2022-11-09T15:39:20.599Z,76.82
2022-11-09T15:42:45.229Z,77.30
2022-11-09T15:46:08.664Z,77.69
2022-11-09T15:49:38.556Z,77.23
2022-11-09T15:53:02.040Z,77.48
2022-11-09T15:56:37.726Z,77.64
2022-11-09T16:00:03.421Z,77.40
2022-11-09T16:03:28.223Z,77.61
2022-11-09T16:06:51.306Z,77.97
2022-11-09T16:10:14.468Z,78.17
2022-11-09T16:13:31.877Z,78.55
2022-11-09T16:16:55.135Z,78.73
2022-11-09T16:20:20.371Z,79.08
2022-11-09T16:23:42.970Z,78.99
2022-11-09T16:27:12.807Z,79.40
2022-11-09T16:30:33.810Z,79.62
2022-11-09T16:33:58.319Z,79.61
2022-11-09T16:37:21.703Z,79.43
2022-11-09T16:40:45.449Z,79.29
2022-11-09T16:44:08.506Z,79.15
2022-11-09T16:47:32.268Z,79.72
2022-11-09T16:50:56.647Z,79.85
2022-11-09T16:54:20.966Z,79.46
2022-11-09T16:57:44.814Z,79.63
2022-11-09T17:01:11.901Z,79.95
2022-11-09T17:04:34.329Z,79.32
2022-11-09T17:07:57.310Z,78.85
2022-11-09T17:11:26.938Z,79.26
2022-11-09T17:14:43.641Z,78.98
2022-11-09T17:17:55.572Z,78.99
2022-11-09T17:21:24.179Z,79.28
2022-11-09T17:24:47.257Z,78.92
2022-11-09T17:28:10.495Z,79.15
2022-11-09T17:31:33.672Z,78.76
2022-11-09T17:34:59.189Z,79.55
2022-11-09T17:38:23.457Z,79.56
2022-11-09T17:41:46.861Z,79.67
2022-11-09T17:45:11.978Z,80.00
2022-11-09T17:48:36.746Z,80.34
2022-11-09T17:52:00.093Z,80.26
2022-11-09T17:55:23.609Z,80.67
2022-11-09T17:58:47.020Z,80.40
2022-11-09T18:02:10.963Z,80.45
2022-11-09T18:05:34.361Z,81.15
2022-11-09T18:09:26.719Z,81.30
2022-11-09T18:12:23.361Z,81.28
2022-11-09T18:15:47.234Z,81.59
2022-11-09T18:19:15.577Z,81.58
2022-11-09T18:22:38.183Z,81.95
2022-11-09T18:26:13.554Z,82.48
2022-11-09T18:29:37.084Z,83.23
2022-11-09T18:33:01.762Z,83.24
2022-11-09T18:36:30.636Z,83.37
2022-11-09T18:39:53.848Z,83.02
2022-11-09T18:43:16.979Z,83.07
2022-11-09T18:46:40.575Z,83.44
2022-11-09T18:49:58.136Z,83.78
2022-11-09T18:53:07.263Z,84.35
2022-11-09T18:56:34.107Z,84.31
2022-11-09T18:59:57.427Z,84.48
2022-11-09T19:03:21.117Z,84.33
2022-11-09T19:06:43.901Z,84.06
2022-11-09T19:10:08.227Z,83.94
2022-11-09T19:13:31.895Z,83.84
2022-11-09T19:16:55.410Z,84.39
2022-11-09T19:20:19.589Z,84.00
2022-11-09T19:23:43.233Z,84.01
2022-11-09T19:27:08.093Z,84.42
2022-11-09T19:30:32.967Z,84.69
2022-11-09T19:33:56.157Z,85.04
2022-11-09T19:37:20.062Z,85.06
2022-11-09T19:40:44.576Z,85.36
2022-11-09T19:44:04.613Z,85.10
2022-11-09T19:47:27.092Z,84.85
2022-11-09T19:50:50.553Z,85.74
2022-11-09T19:54:15.045Z,85.80
2022-11-09T19:57:38.195Z,85.54
2022-11-09T20:01:02.333Z,85.31
2022-11-09T20:04:26.229Z,85.38
2022-11-09T20:07:50.498Z,85.28
2022-11-09T20:11:25.086Z,85.19
2022-11-09T20:14:48.260Z,84.79
2022-11-09T20:18:12.344Z,84.44
2022-11-09T20:21:36.069Z,84.46
2022-11-09T20:24:59.733Z,84.05
2022-11-09T20:28:24.118Z,84.47
2022-11-09T20:31:48.698Z,84.06
2022-11-09T20:35:11.830Z,84.04
2022-11-09T20:38:35.156Z,84.47
2022-11-09T20:41:58.717Z,84.49
2022-11-09T20:45:23.947Z,84.55
2022-11-09T20:48:55.952Z,85.15
2022-11-09T20:52:12.350Z,85.13
2022-11-09T20:55:35.892Z,84.88
2022-11-09T20:58:52.759Z,85.29
2022-11-09T21:02:17.531Z,85.04
2022-11-09T21:05:41.232Z,85.11
2022-11-09T21:09:11.058Z,85.00
2022-11-09T21:12:31.573Z,85.26
2022-11-09T21:15:42.936Z,85.41
2022-11-09T21:19:06.646Z,85.74
2022-11-09T21:22:29.913Z,85.60
2022-11-09T21:26:15.507Z,84.51
2022-11-09T21:29:58.382Z,84.99
2022-11-09T21:33:21.586Z,85.08
2022-11-09T21:36:46.463Z,84.96
2022-11-09T21:40:09.888Z,84.70
2022-11-09T21:43:33.170Z,84.87
2022-11-09T21:46:50.720Z,85.01
2022-11-09T21:49:59.651Z,85.40
2022-11-09T21:53:24.181Z,84.91
2022-11-09T21:56:47.639Z,84.72
2022-11-09T22:00:11.949Z,85.22
2022-11-09T22:03:38.064Z,85.32
2022-11-09T22:07:01.605Z,85.05
2022-11-09T22:10:19.078Z,84.71
2022-11-09T22:14:01.272Z,84.08
2022-11-09T22:17:25.294Z,84.31
2022-11-09T22:21:04.417Z,84.69
2022-11-09T22:24:28.955Z,85.00
2022-11-09T22:27:52.759Z,85.68
2022-11-09T22:31:20.704Z,85.43
2022-11-09T22:34:45.055Z,85.14
2022-11-09T22:38:09.922Z,85.23
2022-11-09T22:41:34.461Z,85.11
2022-11-09T22:44:57.928Z,85.26
2022-11-09T22:48:22.002Z,85.44
2022-11-09T22:51:46.609Z,86.07
2022-11-09T22:55:10.393Z,86.29
2022-11-09T22:58:34.321Z,87.25
2022-11-09T23:01:57.790Z,88.20
2022-11-09T23:05:22.273Z,87.25
2022-11-09T23:08:45.551Z,87.09
2022-11-09T23:12:02.847Z,87.41
2022-11-09T23:15:27.156Z,87.75
2022-11-09T23:19:00.828Z,87.89
2022-11-09T23:22:18.487Z,88.19
2022-11-09T23:26:01.500Z,87.72
2022-11-09T23:29:25.154Z,87.29
2022-11-09T23:32:47.840Z,87.03
2022-11-09T23:36:11.210Z,86.88
2022-11-09T23:39:34.230Z,86.42
2022-11-09T23:42:50.572Z,86.08
2022-11-09T23:46:07.747Z,85.37
2022-11-09T23:49:31.140Z,85.38
2022-11-09T23:52:55.100Z,85.27
2022-11-09T23:56:24.398Z,85.58
2022-11-09T23:59:41.658Z,86.15
